sensor_id;sensor_type;location;lat;lon;timestamp;P1;durP1;ratioP1;P2;durP2;ratioP2
40951;SDS011;26682;51.660;19.338;2022-12-07T00:00:02;59.90;;;31.13;;
40951;SDS011;26682;51.660;19.338;2022-12-07T00:02:10;57.50;;;29.25;;
40951;SDS011;26682;51.660;19.338;2022-12-07T00:03:58;57.95;;;30.90;;
40951;SDS011;26682;51.660;19.338;2022-12-07T00:05:52;58.88;;;30.58;;
40951;SDS011;26682;51.660;19.338;2022-12-07T00:07:43;50.75;;;28.17;;
40951;SDS011;26682;51.660;19.338;2022-12-07T00:09:30;56.10;;;30.17;;
40951;SDS011;26682;51.660;19.338;2022-12-07T00:11:19;51.97;;;28.17;;
40951;SDS011;26682;51.660;19.338;2022-12-07T00:13:07;50.67;;;28.92;;
40951;SDS011;26682;51.660;19.338;2022-12-07T00:14:54;57.20;;;29.50;;
40951;SDS011;26682;51.660;19.338;2022-12-07T00:16:42;56.63;;;30.37;;
40951;SDS011;26682;51.660;19.338;2022-12-07T00:18:30;54.72;;;28.70;;
40951;SDS011;26682;51.660;19.338;2022-12-07T00:20:18;57.97;;;31.52;;
40951;SDS011;26682;51.660;19.338;2022-12-07T00:22:05;50.40;;;27.80;;
40951;SDS011;26682;51.660;19.338;2022-12-07T00:23:52;52.45;;;30.67;;
40951;SDS011;26682;51.660;19.338;2022-12-07T00:25:41;50.80;;;28.73;;
40951;SDS011;26682;51.660;19.338;2022-12-07T00:27:28;58.53;;;29.27;;
40951;SDS011;26682;51.660;19.338;2022-12-07T00:29:16;51.28;;;28.52;;
40951;SDS011;26682;51.660;19.338;2022-12-07T00:31:09;48.92;;;28.35;;
40951;SDS011;26682;51.660;19.338;2022-12-07T00:32:58;51.22;;;29.08;;
40951;SDS011;26682;51.660;19.338;2022-12-07T00:34:45;47.33;;;26.13;;
40951;SDS011;26682;51.660;19.338;2022-12-07T00:36:32;48.20;;;27.52;;
40951;SDS011;26682;51.660;19.338;2022-12-07T00:38:19;49.83;;;27.75;;
40951;SDS011;26682;51.660;19.338;2022-12-07T00:40:06;48.17;;;27.67;;
40951;SDS011;26682;51.660;19.338;2022-12-07T00:41:54;43.72;;;26.13;;
40951;SDS011;26682;51.660;19.338;2022-12-07T00:43:41;45.87;;;25.87;;
40951;SDS011;26682;51.660;19.338;2022-12-07T00:45:29;45.47;;;26.75;;
40951;SDS011;26682;51.660;19.338;2022-12-07T00:47:17;41.05;;;25.40;;
40951;SDS011;26682;51.660;19.338;2022-12-07T00:49:04;43.97;;;25.23;;
40951;SDS011;26682;51.660;19.338;2022-12-07T00:50:52;40.83;;;24.45;;
40951;SDS011;26682;51.660;19.338;2022-12-07T00:52:39;42.63;;;23.25;;
40951;SDS011;26682;51.660;19.338;2022-12-07T00:54:26;42.27;;;23.63;;
40951;SDS011;26682;51.660;19.338;2022-12-07T00:56:14;38.47;;;23.63;;
40951;SDS011;26682;51.660;19.338;2022-12-07T00:58:03;42.83;;;25.52;;
40951;SDS011;26682;51.660;19.338;2022-12-07T00:59:50;48.43;;;26.37;;
40951;SDS011;26682;51.660;19.338;2022-12-07T01:01:41;42.15;;;25.13;;
40951;SDS011;26682;51.660;19.338;2022-12-07T01:03:29;40.97;;;24.50;;
40951;SDS011;26682;51.660;19.338;2022-12-07T01:05:16;42.58;;;23.95;;
40951;SDS011;26682;51.660;19.338;2022-12-07T01:07:04;40.28;;;23.30;;
40951;SDS011;26682;51.660;19.338;2022-12-07T01:08:51;42.63;;;24.77;;
40951;SDS011;26682;51.660;19.338;2022-12-07T01:10:39;42.05;;;24.55;;
40951;SDS011;26682;51.660;19.338;2022-12-07T01:12:26;41.15;;;24.23;;
40951;SDS011;26682;51.660;19.338;2022-12-07T01:14:14;44.63;;;26.10;;
40951;SDS011;26682;51.660;19.338;2022-12-07T01:16:02;42.03;;;25.73;;
40951;SDS011;26682;51.660;19.338;2022-12-07T01:17:50;41.38;;;24.83;;
40951;SDS011;26682;51.660;19.338;2022-12-07T01:19:38;45.15;;;26.48;;
40951;SDS011;26682;51.660;19.338;2022-12-07T01:21:26;41.17;;;23.80;;
40951;SDS011;26682;51.660;19.338;2022-12-07T01:23:15;38.75;;;23.85;;
40951;SDS011;26682;51.660;19.338;2022-12-07T01:25:02;40.53;;;24.15;;
40951;SDS011;26682;51.660;19.338;2022-12-07T01:26:49;45.22;;;25.60;;
40951;SDS011;26682;51.660;19.338;2022-12-07T01:28:37;40.80;;;25.67;;
40951;SDS011;26682;51.660;19.338;2022-12-07T01:32:11;44.15;;;23.85;;
40951;SDS011;26682;51.660;19.338;2022-12-07T01:33:59;45.05;;;24.92;;
40951;SDS011;26682;51.660;19.338;2022-12-07T01:35:47;45.83;;;25.70;;
40951;SDS011;26682;51.660;19.338;2022-12-07T01:37:35;44.70;;;26.50;;
40951;SDS011;26682;51.660;19.338;2022-12-07T01:39:23;44.30;;;26.65;;
40951;SDS011;26682;51.660;19.338;2022-12-07T01:41:11;45.10;;;26.13;;
40951;SDS011;26682;51.660;19.338;2022-12-07T01:42:59;45.42;;;25.50;;
40951;SDS011;26682;51.660;19.338;2022-12-07T01:47:04;47.53;;;25.88;;
40951;SDS011;26682;51.660;19.338;2022-12-07T01:48:53;45.75;;;26.00;;
40951;SDS011;26682;51.660;19.338;2022-12-07T01:50:40;42.97;;;24.83;;
40951;SDS011;26682;51.660;19.338;2022-12-07T01:52:30;40.75;;;24.42;;
40951;SDS011;26682;51.660;19.338;2022-12-07T01:54:19;39.75;;;23.20;;
40951;SDS011;26682;51.660;19.338;2022-12-07T01:56:08;38.28;;;23.38;;
40951;SDS011;26682;51.660;19.338;2022-12-07T01:57:59;38.30;;;22.70;;
40951;SDS011;26682;51.660;19.338;2022-12-07T01:59:47;34.47;;;22.00;;
40951;SDS011;26682;51.660;19.338;2022-12-07T02:01:36;33.15;;;21.58;;
40951;SDS011;26682;51.660;19.338;2022-12-07T02:03:27;33.08;;;21.17;;
40951;SDS011;26682;51.660;19.338;2022-12-07T02:05:20;34.45;;;21.02;;
40951;SDS011;26682;51.660;19.338;2022-12-07T02:07:08;32.28;;;20.55;;
40951;SDS011;26682;51.660;19.338;2022-12-07T02:08:55;33.17;;;20.10;;
40951;SDS011;26682;51.660;19.338;2022-12-07T02:10:43;31.67;;;18.85;;
40951;SDS011;26682;51.660;19.338;2022-12-07T02:12:30;28.70;;;19.05;;
40951;SDS011;26682;51.660;19.338;2022-12-07T02:14:17;27.58;;;18.52;;
40951;SDS011;26682;51.660;19.338;2022-12-07T02:16:08;28.63;;;18.37;;
40951;SDS011;26682;51.660;19.338;2022-12-07T02:18:07;26.88;;;18.40;;
40951;SDS011;26682;51.660;19.338;2022-12-07T02:24:43;24.67;;;15.95;;
40951;SDS011;26682;51.660;19.338;2022-12-07T02:26:47;20.83;;;15.50;;
40951;SDS011;26682;51.660;19.338;2022-12-07T02:30:50;28.05;;;18.52;;
40951;SDS011;26682;51.660;19.338;2022-12-07T02:32:50;24.77;;;18.75;;
40951;SDS011;26682;51.660;19.338;2022-12-07T02:34:50;22.23;;;16.20;;
40951;SDS011;26682;51.660;19.338;2022-12-07T02:36:44;22.20;;;15.43;;
40951;SDS011;26682;51.660;19.338;2022-12-07T02:38:42;21.92;;;15.52;;
40951;SDS011;26682;51.660;19.338;2022-12-07T02:40:40;21.88;;;15.55;;
40951;SDS011;26682;51.660;19.338;2022-12-07T02:42:31;22.52;;;14.85;;
40951;SDS011;26682;51.660;19.338;2022-12-07T02:44:28;22.88;;;16.15;;
40951;SDS011;26682;51.660;19.338;2022-12-07T02:46:22;22.17;;;15.15;;
40951;SDS011;26682;51.660;19.338;2022-12-07T02:48:14;21.77;;;16.15;;
40951;SDS011;26682;51.660;19.338;2022-12-07T02:50:04;20.77;;;15.10;;
40951;SDS011;26682;51.660;19.338;2022-12-07T02:51:52;19.80;;;14.82;;
40951;SDS011;26682;51.660;19.338;2022-12-07T02:53:41;22.67;;;15.95;;
40951;SDS011;26682;51.660;19.338;2022-12-07T02:55:34;19.13;;;14.48;;
40951;SDS011;26682;51.660;19.338;2022-12-07T02:57:42;18.50;;;13.63;;
40951;SDS011;26682;51.660;19.338;2022-12-07T03:02:04;19.67;;;12.85;;
40951;SDS011;26682;51.660;19.338;2022-12-07T03:06:27;18.20;;;13.68;;
40951;SDS011;26682;51.660;19.338;2022-12-07T03:08:23;20.30;;;14.60;;
40951;SDS011;26682;51.660;19.338;2022-12-07T03:10:19;21.55;;;14.38;;
40951;SDS011;26682;51.660;19.338;2022-12-07T03:12:14;18.20;;;12.48;;
40951;SDS011;26682;51.660;19.338;2022-12-07T03:14:11;21.08;;;14.25;;
40951;SDS011;26682;51.660;19.338;2022-12-07T03:17:50;18.25;;;13.23;;
40951;SDS011;26682;51.660;19.338;2022-12-07T03:19:39;20.88;;;13.02;;
40951;SDS011;26682;51.660;19.338;2022-12-07T03:21:34;17.50;;;13.32;;
40951;SDS011;26682;51.660;19.338;2022-12-07T03:23:25;19.70;;;13.88;;
40951;SDS011;26682;51.660;19.338;2022-12-07T03:25:13;18.73;;;13.63;;
40951;SDS011;26682;51.660;19.338;2022-12-07T03:27:07;20.33;;;13.77;;
40951;SDS011;26682;51.660;19.338;2022-12-07T03:29:02;18.98;;;13.52;;
40951;SDS011;26682;51.660;19.338;2022-12-07T03:35:00;18.15;;;11.90;;
40951;SDS011;26682;51.660;19.338;2022-12-07T03:36:58;16.25;;;11.40;;
40951;SDS011;26682;51.660;19.338;2022-12-07T03:38:53;18.35;;;11.73;;
40951;SDS011;26682;51.660;19.338;2022-12-07T03:41:04;18.55;;;11.93;;
40951;SDS011;26682;51.660;19.338;2022-12-07T03:42:56;18.33;;;12.00;;
40951;SDS011;26682;51.660;19.338;2022-12-07T03:44:46;16.98;;;11.27;;
40951;SDS011;26682;51.660;19.338;2022-12-07T03:46:36;18.70;;;12.75;;
40951;SDS011;26682;51.660;19.338;2022-12-07T03:50:50;14.37;;;10.10;;
40951;SDS011;26682;51.660;19.338;2022-12-07T03:52:42;16.23;;;11.18;;
40951;SDS011;26682;51.660;19.338;2022-12-07T03:54:57;15.48;;;10.60;;
40951;SDS011;26682;51.660;19.338;2022-12-07T03:56:46;15.82;;;10.50;;
40951;SDS011;26682;51.660;19.338;2022-12-07T03:58:35;15.38;;;10.32;;
40951;SDS011;26682;51.660;19.338;2022-12-07T04:00:23;16.00;;;10.68;;
40951;SDS011;26682;51.660;19.338;2022-12-07T04:02:11;13.55;;;10.52;;
40951;SDS011;26682;51.660;19.338;2022-12-07T04:04:00;14.13;;;9.88;;
40951;SDS011;26682;51.660;19.338;2022-12-07T04:05:47;14.70;;;10.75;;
40951;SDS011;26682;51.660;19.338;2022-12-07T04:07:34;15.00;;;10.40;;
40951;SDS011;26682;51.660;19.338;2022-12-07T04:09:21;14.88;;;10.18;;
40951;SDS011;26682;51.660;19.338;2022-12-07T04:11:09;14.38;;;10.63;;
40951;SDS011;26682;51.660;19.338;2022-12-07T04:12:56;12.85;;;9.73;;
40951;SDS011;26682;51.660;19.338;2022-12-07T04:14:43;12.83;;;10.17;;
40951;SDS011;26682;51.660;19.338;2022-12-07T04:16:31;14.07;;;9.88;;
40951;SDS011;26682;51.660;19.338;2022-12-07T04:18:18;12.57;;;9.60;;
40951;SDS011;26682;51.660;19.338;2022-12-07T04:20:05;14.60;;;10.52;;
40951;SDS011;26682;51.660;19.338;2022-12-07T04:21:54;13.20;;;10.25;;
40951;SDS011;26682;51.660;19.338;2022-12-07T04:23:42;15.80;;;10.55;;
40951;SDS011;26682;51.660;19.338;2022-12-07T04:25:29;13.77;;;10.17;;
40951;SDS011;26682;51.660;19.338;2022-12-07T04:27:16;13.30;;;9.50;;
40951;SDS011;26682;51.660;19.338;2022-12-07T04:29:04;13.83;;;9.30;;
40951;SDS011;26682;51.660;19.338;2022-12-07T04:30:53;15.70;;;9.77;;
40951;SDS011;26682;51.660;19.338;2022-12-07T04:32:41;15.20;;;9.48;;
40951;SDS011;26682;51.660;19.338;2022-12-07T04:34:28;13.90;;;9.17;;
40951;SDS011;26682;51.660;19.338;2022-12-07T04:36:15;15.32;;;10.52;;
40951;SDS011;26682;51.660;19.338;2022-12-07T04:38:03;13.52;;;9.95;;
40951;SDS011;26682;51.660;19.338;2022-12-07T04:39:50;13.63;;;9.83;;
40951;SDS011;26682;51.660;19.338;2022-12-07T04:41:37;14.43;;;9.65;;
40951;SDS011;26682;51.660;19.338;2022-12-07T04:43:25;15.63;;;10.32;;
40951;SDS011;26682;51.660;19.338;2022-12-07T04:45:12;15.77;;;10.13;;
40951;SDS011;26682;51.660;19.338;2022-12-07T04:46:59;14.68;;;9.80;;
40951;SDS011;26682;51.660;19.338;2022-12-07T04:48:47;15.30;;;9.98;;
40951;SDS011;26682;51.660;19.338;2022-12-07T04:52:32;14.88;;;9.70;;
40951;SDS011;26682;51.660;19.338;2022-12-07T04:54:20;15.40;;;9.77;;
40951;SDS011;26682;51.660;19.338;2022-12-07T04:56:10;12.32;;;9.45;;
40951;SDS011;26682;51.660;19.338;2022-12-07T04:57:57;14.77;;;10.07;;
40951;SDS011;26682;51.660;19.338;2022-12-07T04:59:45;13.48;;;9.30;;
40951;SDS011;26682;51.660;19.338;2022-12-07T05:01:33;12.75;;;9.65;;
40951;SDS011;26682;51.660;19.338;2022-12-07T05:03:20;16.48;;;10.82;;
40951;SDS011;26682;51.660;19.338;2022-12-07T05:05:07;13.15;;;9.55;;
40951;SDS011;26682;51.660;19.338;2022-12-07T05:06:55;11.65;;;9.70;;
40951;SDS011;26682;51.660;19.338;2022-12-07T05:08:42;14.13;;;9.97;;
40951;SDS011;26682;51.660;19.338;2022-12-07T05:10:29;12.15;;;9.63;;
40951;SDS011;26682;51.660;19.338;2022-12-07T05:12:16;13.77;;;9.93;;
40951;SDS011;26682;51.660;19.338;2022-12-07T05:14:05;13.73;;;9.20;;
40951;SDS011;26682;51.660;19.338;2022-12-07T05:16:00;13.18;;;9.30;;
40951;SDS011;26682;51.660;19.338;2022-12-07T05:17:47;12.43;;;9.25;;
40951;SDS011;26682;51.660;19.338;2022-12-07T05:19:34;12.87;;;10.00;;
40951;SDS011;26682;51.660;19.338;2022-12-07T05:21:22;12.77;;;8.88;;
40951;SDS011;26682;51.660;19.338;2022-12-07T05:23:09;17.95;;;11.55;;
40951;SDS011;26682;51.660;19.338;2022-12-07T05:24:57;13.63;;;10.30;;
40951;SDS011;26682;51.660;19.338;2022-12-07T05:26:44;16.35;;;10.55;;
40951;SDS011;26682;51.660;19.338;2022-12-07T05:28:32;14.10;;;10.23;;
40951;SDS011;26682;51.660;19.338;2022-12-07T05:30:19;10.83;;;8.27;;
40951;SDS011;26682;51.660;19.338;2022-12-07T05:32:06;13.10;;;9.30;;
40951;SDS011;26682;51.660;19.338;2022-12-07T05:35:41;12.88;;;9.02;;
40951;SDS011;26682;51.660;19.338;2022-12-07T05:37:28;12.45;;;9.52;;
40951;SDS011;26682;51.660;19.338;2022-12-07T05:39:16;15.40;;;9.87;;
40951;SDS011;26682;51.660;19.338;2022-12-07T05:41:04;18.50;;;11.40;;
40951;SDS011;26682;51.660;19.338;2022-12-07T05:42:52;17.13;;;10.55;;
40951;SDS011;26682;51.660;19.338;2022-12-07T05:44:45;18.23;;;11.65;;
40951;SDS011;26682;51.660;19.338;2022-12-07T05:46:32;18.30;;;11.65;;
40951;SDS011;26682;51.660;19.338;2022-12-07T05:48:20;18.70;;;11.77;;
40951;SDS011;26682;51.660;19.338;2022-12-07T05:50:07;18.65;;;11.63;;
40951;SDS011;26682;51.660;19.338;2022-12-07T05:51:54;20.10;;;12.27;;
40951;SDS011;26682;51.660;19.338;2022-12-07T05:53:42;21.52;;;15.50;;
40951;SDS011;26682;51.660;19.338;2022-12-07T05:55:29;30.20;;;22.92;;
40951;SDS011;26682;51.660;19.338;2022-12-07T05:57:16;27.13;;;19.60;;
40951;SDS011;26682;51.660;19.338;2022-12-07T05:59:03;25.50;;;16.50;;
40951;SDS011;26682;51.660;19.338;2022-12-07T06:01:08;20.67;;;12.15;;
40951;SDS011;26682;51.660;19.338;2022-12-07T06:02:55;22.08;;;13.10;;
40951;SDS011;26682;51.660;19.338;2022-12-07T06:06:32;26.63;;;14.60;;
40951;SDS011;26682;51.660;19.338;2022-12-07T06:08:19;30.67;;;16.55;;
40951;SDS011;26682;51.660;19.338;2022-12-07T06:10:07;28.67;;;17.55;;
40951;SDS011;26682;51.660;19.338;2022-12-07T06:11:55;29.58;;;16.95;;
40951;SDS011;26682;51.660;19.338;2022-12-07T06:14:01;33.63;;;17.90;;
40951;SDS011;26682;51.660;19.338;2022-12-07T06:15:49;32.22;;;18.50;;
40951;SDS011;26682;51.660;19.338;2022-12-07T06:17:36;36.30;;;19.40;;
40951;SDS011;26682;51.660;19.338;2022-12-07T06:19:24;35.67;;;19.77;;
40951;SDS011;26682;51.660;19.338;2022-12-07T06:21:11;32.42;;;17.40;;
40951;SDS011;26682;51.660;19.338;2022-12-07T06:22:58;31.48;;;18.17;;
40951;SDS011;26682;51.660;19.338;2022-12-07T06:24:45;32.97;;;18.67;;
40951;SDS011;26682;51.660;19.338;2022-12-07T06:26:33;41.72;;;22.38;;
40951;SDS011;26682;51.660;19.338;2022-12-07T06:28:20;37.30;;;22.80;;
40951;SDS011;26682;51.660;19.338;2022-12-07T06:30:07;29.38;;;19.33;;
40951;SDS011;26682;51.660;19.338;2022-12-07T06:31:55;35.05;;;20.65;;
40951;SDS011;26682;51.660;19.338;2022-12-07T06:33:43;32.53;;;19.30;;
40951;SDS011;26682;51.660;19.338;2022-12-07T06:35:31;29.80;;;17.47;;
40951;SDS011;26682;51.660;19.338;2022-12-07T06:37:20;28.80;;;17.63;;
40951;SDS011;26682;51.660;19.338;2022-12-07T06:39:07;34.15;;;18.40;;
40951;SDS011;26682;51.660;19.338;2022-12-07T06:40:55;28.10;;;17.27;;
40951;SDS011;26682;51.660;19.338;2022-12-07T06:42:43;27.50;;;18.27;;
40951;SDS011;26682;51.660;19.338;2022-12-07T06:44:30;28.33;;;16.50;;
40951;SDS011;26682;51.660;19.338;2022-12-07T06:46:17;28.67;;;16.83;;
40951;SDS011;26682;51.660;19.338;2022-12-07T06:48:05;28.05;;;16.52;;
40951;SDS011;26682;51.660;19.338;2022-12-07T06:49:52;31.23;;;17.60;;
40951;SDS011;26682;51.660;19.338;2022-12-07T06:51:40;29.50;;;18.10;;
40951;SDS011;26682;51.660;19.338;2022-12-07T06:53:30;29.52;;;16.45;;
40951;SDS011;26682;51.660;19.338;2022-12-07T06:55:17;30.15;;;17.80;;
40951;SDS011;26682;51.660;19.338;2022-12-07T06:57:05;33.38;;;17.65;;
40951;SDS011;26682;51.660;19.338;2022-12-07T06:58:52;33.42;;;19.05;;
40951;SDS011;26682;51.660;19.338;2022-12-07T07:00:39;31.50;;;18.85;;
40951;SDS011;26682;51.660;19.338;2022-12-07T07:02:27;26.30;;;17.13;;
40951;SDS011;26682;51.660;19.338;2022-12-07T07:04:16;28.70;;;17.23;;
40951;SDS011;26682;51.660;19.338;2022-12-07T07:06:03;31.50;;;19.30;;
40951;SDS011;26682;51.660;19.338;2022-12-07T07:07:51;28.35;;;17.38;;
40951;SDS011;26682;51.660;19.338;2022-12-07T07:10:02;33.83;;;21.27;;
40951;SDS011;26682;51.660;19.338;2022-12-07T07:11:50;31.48;;;20.23;;
40951;SDS011;26682;51.660;19.338;2022-12-07T07:15:26;34.40;;;20.42;;
40951;SDS011;26682;51.660;19.338;2022-12-07T07:17:13;31.92;;;18.95;;
40951;SDS011;26682;51.660;19.338;2022-12-07T07:19:00;31.10;;;18.52;;
40951;SDS011;26682;51.660;19.338;2022-12-07T07:20:47;32.03;;;19.70;;
40951;SDS011;26682;51.660;19.338;2022-12-07T07:22:36;33.53;;;18.92;;
40951;SDS011;26682;51.660;19.338;2022-12-07T07:24:23;27.95;;;18.05;;
40951;SDS011;26682;51.660;19.338;2022-12-07T07:26:10;29.35;;;17.33;;
40951;SDS011;26682;51.660;19.338;2022-12-07T07:27:58;21.75;;;13.48;;
40951;SDS011;26682;51.660;19.338;2022-12-07T07:29:45;29.23;;;19.02;;
40951;SDS011;26682;51.660;19.338;2022-12-07T07:31:35;34.40;;;19.92;;
40951;SDS011;26682;51.660;19.338;2022-12-07T07:33:23;33.00;;;19.35;;
40951;SDS011;26682;51.660;19.338;2022-12-07T07:35:10;31.45;;;20.30;;
40951;SDS011;26682;51.660;19.338;2022-12-07T07:36:58;37.22;;;21.33;;
40951;SDS011;26682;51.660;19.338;2022-12-07T07:38:45;34.88;;;20.52;;
40951;SDS011;26682;51.660;19.338;2022-12-07T07:40:32;32.63;;;19.60;;
40951;SDS011;26682;51.660;19.338;2022-12-07T07:42:20;37.00;;;22.15;;
40951;SDS011;26682;51.660;19.338;2022-12-07T07:44:07;39.10;;;24.77;;
40951;SDS011;26682;51.660;19.338;2022-12-07T07:45:55;42.60;;;23.92;;
40951;SDS011;26682;51.660;19.338;2022-12-07T07:47:43;43.40;;;26.70;;
40951;SDS011;26682;51.660;19.338;2022-12-07T07:49:30;40.63;;;24.40;;
40951;SDS011;26682;51.660;19.338;2022-12-07T07:51:17;32.47;;;19.98;;
40951;SDS011;26682;51.660;19.338;2022-12-07T07:53:04;33.80;;;20.20;;
40951;SDS011;26682;51.660;19.338;2022-12-07T07:54:52;30.55;;;20.40;;
40951;SDS011;26682;51.660;19.338;2022-12-07T07:56:39;30.88;;;20.25;;
40951;SDS011;26682;51.660;19.338;2022-12-07T07:58:26;34.17;;;21.92;;
40951;SDS011;26682;51.660;19.338;2022-12-07T08:00:14;28.00;;;20.17;;
40951;SDS011;26682;51.660;19.338;2022-12-07T08:02:02;33.90;;;21.83;;
40951;SDS011;26682;51.660;19.338;2022-12-07T08:03:49;32.55;;;22.20;;
40951;SDS011;26682;51.660;19.338;2022-12-07T08:05:37;27.25;;;19.83;;
40951;SDS011;26682;51.660;19.338;2022-12-07T08:07:24;26.73;;;19.55;;
40951;SDS011;26682;51.660;19.338;2022-12-07T08:09:12;27.80;;;19.65;;
40951;SDS011;26682;51.660;19.338;2022-12-07T08:10:59;27.80;;;18.40;;
40951;SDS011;26682;51.660;19.338;2022-12-07T08:12:48;27.30;;;19.08;;
40951;SDS011;26682;51.660;19.338;2022-12-07T08:14:54;27.85;;;19.50;;
40951;SDS011;26682;51.660;19.338;2022-12-07T08:16:41;24.77;;;16.77;;
40951;SDS011;26682;51.660;19.338;2022-12-07T08:18:28;30.00;;;19.42;;
40951;SDS011;26682;51.660;19.338;2022-12-07T08:20:15;29.52;;;20.05;;
40951;SDS011;26682;51.660;19.338;2022-12-07T08:22:02;30.40;;;20.67;;
40951;SDS011;26682;51.660;19.338;2022-12-07T08:23:50;30.00;;;21.75;;
40951;SDS011;26682;51.660;19.338;2022-12-07T08:25:37;31.63;;;19.90;;
40951;SDS011;26682;51.660;19.338;2022-12-07T08:27:25;33.83;;;24.10;;
40951;SDS011;26682;51.660;19.338;2022-12-07T08:29:13;32.75;;;22.77;;
40951;SDS011;26682;51.660;19.338;2022-12-07T08:31:02;25.00;;;17.05;;
40951;SDS011;26682;51.660;19.338;2022-12-07T08:32:51;25.92;;;18.40;;
40951;SDS011;26682;51.660;19.338;2022-12-07T08:34:39;24.38;;;17.10;;
40951;SDS011;26682;51.660;19.338;2022-12-07T08:36:26;24.80;;;16.58;;
40951;SDS011;26682;51.660;19.338;2022-12-07T08:38:13;20.30;;;14.60;;
40951;SDS011;26682;51.660;19.338;2022-12-07T08:40:01;23.15;;;16.30;;
40951;SDS011;26682;51.660;19.338;2022-12-07T08:41:49;24.17;;;17.63;;
40951;SDS011;26682;51.660;19.338;2022-12-07T08:43:36;27.88;;;18.88;;
40951;SDS011;26682;51.660;19.338;2022-12-07T08:45:24;30.48;;;19.90;;
40951;SDS011;26682;51.660;19.338;2022-12-07T08:47:13;24.30;;;16.15;;
40951;SDS011;26682;51.660;19.338;2022-12-07T08:51:03;33.53;;;19.90;;
40951;SDS011;26682;51.660;19.338;2022-12-07T08:52:51;43.38;;;25.30;;
40951;SDS011;26682;51.660;19.338;2022-12-07T08:54:41;32.83;;;21.15;;
40951;SDS011;26682;51.660;19.338;2022-12-07T08:56:28;26.60;;;18.50;;
40951;SDS011;26682;51.660;19.338;2022-12-07T08:58:16;30.10;;;21.73;;
40951;SDS011;26682;51.660;19.338;2022-12-07T09:00:04;21.50;;;14.20;;
40951;SDS011;26682;51.660;19.338;2022-12-07T09:01:51;22.33;;;15.75;;
40951;SDS011;26682;51.660;19.338;2022-12-07T09:03:39;26.55;;;17.05;;
40951;SDS011;26682;51.660;19.338;2022-12-07T09:05:26;23.55;;;17.00;;
40951;SDS011;26682;51.660;19.338;2022-12-07T09:07:14;26.70;;;17.40;;
40951;SDS011;26682;51.660;19.338;2022-12-07T09:09:02;28.60;;;18.38;;
40951;SDS011;26682;51.660;19.338;2022-12-07T09:10:50;29.00;;;20.13;;
40951;SDS011;26682;51.660;19.338;2022-12-07T09:12:37;30.10;;;19.20;;
40951;SDS011;26682;51.660;19.338;2022-12-07T09:14:24;28.73;;;19.20;;
40951;SDS011;26682;51.660;19.338;2022-12-07T09:16:12;26.85;;;19.50;;
40951;SDS011;26682;51.660;19.338;2022-12-07T09:17:59;30.88;;;21.27;;
40951;SDS011;26682;51.660;19.338;2022-12-07T09:19:46;34.00;;;20.10;;
40951;SDS011;26682;51.660;19.338;2022-12-07T09:21:34;28.73;;;19.42;;
40951;SDS011;26682;51.660;19.338;2022-12-07T09:23:21;29.83;;;18.93;;
40951;SDS011;26682;51.660;19.338;2022-12-07T09:25:08;28.67;;;20.02;;
40951;SDS011;26682;51.660;19.338;2022-12-07T09:26:56;28.55;;;19.48;;
40951;SDS011;26682;51.660;19.338;2022-12-07T09:28:44;26.20;;;17.70;;
40951;SDS011;26682;51.660;19.338;2022-12-07T09:30:31;22.77;;;15.63;;
40951;SDS011;26682;51.660;19.338;2022-12-07T09:32:38;22.25;;;14.32;;
40951;SDS011;26682;51.660;19.338;2022-12-07T09:34:26;18.70;;;13.48;;
40951;SDS011;26682;51.660;19.338;2022-12-07T09:36:13;20.42;;;13.55;;
40951;SDS011;26682;51.660;19.338;2022-12-07T09:38:00;21.70;;;15.75;;
40951;SDS011;26682;51.660;19.338;2022-12-07T09:39:48;21.27;;;14.63;;
40951;SDS011;26682;51.660;19.338;2022-12-07T09:41:39;20.58;;;14.38;;
40951;SDS011;26682;51.660;19.338;2022-12-07T09:43:29;21.75;;;14.05;;
40951;SDS011;26682;51.660;19.338;2022-12-07T09:45:18;19.38;;;14.48;;
40951;SDS011;26682;51.660;19.338;2022-12-07T09:47:11;20.20;;;14.15;;
40951;SDS011;26682;51.660;19.338;2022-12-07T09:48:58;17.73;;;13.63;;
40951;SDS011;26682;51.660;19.338;2022-12-07T09:50:46;17.20;;;12.48;;
40951;SDS011;26682;51.660;19.338;2022-12-07T09:52:35;17.52;;;12.75;;
40951;SDS011;26682;51.660;19.338;2022-12-07T09:54:25;20.00;;;13.20;;
40951;SDS011;26682;51.660;19.338;2022-12-07T09:56:13;21.65;;;16.23;;
40951;SDS011;26682;51.660;19.338;2022-12-07T09:58:01;18.10;;;12.52;;
40951;SDS011;26682;51.660;19.338;2022-12-07T09:59:48;18.45;;;12.90;;
40951;SDS011;26682;51.660;19.338;2022-12-07T10:01:37;26.23;;;18.10;;
40951;SDS011;26682;51.660;19.338;2022-12-07T10:03:26;31.17;;;22.15;;
40951;SDS011;26682;51.660;19.338;2022-12-07T10:05:36;21.27;;;15.18;;
40951;SDS011;26682;51.660;19.338;2022-12-07T10:07:27;20.88;;;13.88;;
40951;SDS011;26682;51.660;19.338;2022-12-07T10:09:15;17.67;;;12.40;;
40951;SDS011;26682;51.660;19.338;2022-12-07T10:11:04;20.92;;;14.43;;
40951;SDS011;26682;51.660;19.338;2022-12-07T10:13:04;21.90;;;15.48;;
40951;SDS011;26682;51.660;19.338;2022-12-07T10:14:55;18.63;;;12.98;;
40951;SDS011;26682;51.660;19.338;2022-12-07T10:16:54;19.42;;;12.00;;
40951;SDS011;26682;51.660;19.338;2022-12-07T10:18:42;18.30;;;13.40;;
40951;SDS011;26682;51.660;19.338;2022-12-07T10:20:30;26.80;;;16.50;;
40951;SDS011;26682;51.660;19.338;2022-12-07T10:22:17;27.08;;;18.08;;
40951;SDS011;26682;51.660;19.338;2022-12-07T10:24:08;23.50;;;15.60;;
40951;SDS011;26682;51.660;19.338;2022-12-07T10:28:15;27.33;;;15.80;;
40951;SDS011;26682;51.660;19.338;2022-12-07T10:30:07;23.70;;;15.43;;
40951;SDS011;26682;51.660;19.338;2022-12-07T10:33:52;27.23;;;17.40;;
40951;SDS011;26682;51.660;19.338;2022-12-07T10:35:44;27.00;;;17.67;;
40951;SDS011;26682;51.660;19.338;2022-12-07T10:37:32;24.15;;;16.65;;
40951;SDS011;26682;51.660;19.338;2022-12-07T10:39:27;26.20;;;17.10;;
40951;SDS011;26682;51.660;19.338;2022-12-07T10:41:14;19.50;;;14.80;;
40951;SDS011;26682;51.660;19.338;2022-12-07T10:43:04;21.90;;;15.38;;
40951;SDS011;26682;51.660;19.338;2022-12-07T10:45:14;23.13;;;17.60;;
40951;SDS011;26682;51.660;19.338;2022-12-07T10:49:33;21.83;;;16.48;;
40951;SDS011;26682;51.660;19.338;2022-12-07T10:53:51;21.92;;;15.00;;
40951;SDS011;26682;51.660;19.338;2022-12-07T10:58:01;22.98;;;15.65;;
40951;SDS011;26682;51.660;19.338;2022-12-07T11:00:10;23.92;;;17.60;;
40951;SDS011;26682;51.660;19.338;2022-12-07T11:06:39;17.30;;;11.88;;
40951;SDS011;26682;51.660;19.338;2022-12-07T11:15:44;22.27;;;16.40;;
40951;SDS011;26682;51.660;19.338;2022-12-07T11:17:12;16.23;;;11.15;;
40951;SDS011;26682;51.660;19.338;2022-12-07T11:21:21;12.57;;;10.15;;
40951;SDS011;26682;51.660;19.338;2022-12-07T11:25:32;17.63;;;12.27;;
40951;SDS011;26682;51.660;19.338;2022-12-07T11:27:30;16.90;;;11.43;;
40951;SDS011;26682;51.660;19.338;2022-12-07T11:33:26;13.88;;;10.18;;
40951;SDS011;26682;51.660;19.338;2022-12-07T11:37:39;18.83;;;13.07;;
40951;SDS011;26682;51.660;19.338;2022-12-07T11:39:33;15.57;;;10.73;;